sensor_id;sensor_type;location;lat;lon;timestamp;temperature;humidity
64226;DHT22;50545;56.064;26.178;2023-10-31T00:00:41;8.20;99.90
64226;DHT22;50545;56.064;26.178;2023-10-31T00:03:09;8.20;99.90
64226;DHT22;50545;56.064;26.178;2023-10-31T00:05:37;8.20;99.90
64226;DHT22;50545;56.064;26.178;2023-10-31T00:08:05;8.20;99.90
64226;DHT22;50545;56.064;26.178;2023-10-31T00:10:32;8.20;99.90
64226;DHT22;50545;56.064;26.178;2023-10-31T00:13:00;8.20;99.90
64226;DHT22;50545;56.064;26.178;2023-10-31T00:15:27;8.20;99.90
64226;DHT22;50545;56.064;26.178;2023-10-31T00:17:57;8.10;99.90
64226;DHT22;50545;56.064;26.178;2023-10-31T00:20:25;8.10;99.90
64226;DHT22;50545;56.064;26.178;2023-10-31T00:22:52;8.00;99.90
64226;DHT22;50545;56.064;26.178;2023-10-31T00:25:20;8.00;99.90
64226;DHT22;50545;56.064;26.178;2023-10-31T00:27:47;7.90;99.90
64226;DHT22;50545;56.064;26.178;2023-10-31T00:30:15;8.00;99.90
64226;DHT22;50545;56.064;26.178;2023-10-31T00:32:42;7.90;99.90
64226;DHT22;50545;56.064;26.178;2023-10-31T00:35:10;7.90;99.90
64226;DHT22;50545;56.064;26.178;2023-10-31T00:37:39;7.90;99.90
64226;DHT22;50545;56.064;26.178;2023-10-31T00:40:07;7.90;99.90
64226;DHT22;50545;56.064;26.178;2023-10-31T00:42:38;7.80;99.90
64226;DHT22;50545;56.064;26.178;2023-10-31T00:45:08;7.80;99.90
64226;DHT22;50545;56.064;26.178;2023-10-31T00:47:36;7.80;99.90
64226;DHT22;50545;56.064;26.178;2023-10-31T00:50:04;7.70;99.90
64226;DHT22;50545;56.064;26.178;2023-10-31T00:52:32;7.60;99.90
64226;DHT22;50545;56.064;26.178;2023-10-31T00:54:59;7.50;99.90
64226;DHT22;50545;56.064;26.178;2023-10-31T00:57:27;7.30;99.90
64226;DHT22;50545;56.064;26.178;2023-10-31T00:59:55;7.20;99.90
64226;DHT22;50545;56.064;26.178;2023-10-31T01:02:22;7.10;99.90
64226;DHT22;50545;56.064;26.178;2023-10-31T01:04:50;6.90;99.90
64226;DHT22;50545;56.064;26.178;2023-10-31T01:07:17;6.80;99.90
64226;DHT22;50545;56.064;26.178;2023-10-31T01:09:44;6.70;99.90
64226;DHT22;50545;56.064;26.178;2023-10-31T01:12:12;6.60;99.90
64226;DHT22;50545;56.064;26.178;2023-10-31T01:14:39;6.50;99.90
64226;DHT22;50545;56.064;26.178;2023-10-31T01:17:07;6.40;99.90
64226;DHT22;50545;56.064;26.178;2023-10-31T01:19:34;6.40;99.90
64226;DHT22;50545;56.064;26.178;2023-10-31T01:22:02;6.30;99.90
64226;DHT22;50545;56.064;26.178;2023-10-31T01:24:30;6.30;99.90
64226;DHT22;50545;56.064;26.178;2023-10-31T01:26:57;6.30;99.90
64226;DHT22;50545;56.064;26.178;2023-10-31T01:29:24;6.20;99.90
64226;DHT22;50545;56.064;26.178;2023-10-31T01:31:52;6.10;99.90
64226;DHT22;50545;56.064;26.178;2023-10-31T01:34:27;6.00;99.90
64226;DHT22;50545;56.064;26.178;2023-10-31T01:36:54;5.90;99.90
64226;DHT22;50545;56.064;26.178;2023-10-31T01:39:22;5.80;99.90
64226;DHT22;50545;56.064;26.178;2023-10-31T01:41:49;5.70;99.90
64226;DHT22;50545;56.064;26.178;2023-10-31T01:44:17;5.60;99.90
64226;DHT22;50545;56.064;26.178;2023-10-31T01:46:44;5.50;99.90
64226;DHT22;50545;56.064;26.178;2023-10-31T01:49:13;5.50;99.90
64226;DHT22;50545;56.064;26.178;2023-10-31T01:51:41;5.40;99.90
64226;DHT22;50545;56.064;26.178;2023-10-31T01:54:10;5.40;99.90
64226;DHT22;50545;56.064;26.178;2023-10-31T01:56:37;5.30;99.90
64226;DHT22;50545;56.064;26.178;2023-10-31T01:59:06;5.30;99.90
64226;DHT22;50545;56.064;26.178;2023-10-31T02:01:38;5.30;99.90
64226;DHT22;50545;56.064;26.178;2023-10-31T02:04:06;5.20;99.90
64226;DHT22;50545;56.064;26.178;2023-10-31T02:06:34;5.10;99.90
64226;DHT22;50545;56.064;26.178;2023-10-31T02:09:01;5.10;99.90
64226;DHT22;50545;56.064;26.178;2023-10-31T02:11:29;5.00;99.90
64226;DHT22;50545;56.064;26.178;2023-10-31T02:13:56;5.00;99.90
64226;DHT22;50545;56.064;26.178;2023-10-31T02:16:24;5.10;99.90
64226;DHT22;50545;56.064;26.178;2023-10-31T02:18:53;5.00;99.90
64226;DHT22;50545;56.064;26.178;2023-10-31T02:21:20;5.00;99.90
64226;DHT22;50545;56.064;26.178;2023-10-31T02:24:02;5.00;99.90
64226;DHT22;50545;56.064;26.178;2023-10-31T02:26:34;4.90;99.90
64226;DHT22;50545;56.064;26.178;2023-10-31T02:29:02;4.90;99.90
64226;DHT22;50545;56.064;26.178;2023-10-31T02:31:30;4.80;99.90
64226;DHT22;50545;56.064;26.178;2023-10-31T02:33:57;4.70;99.90
64226;DHT22;50545;56.064;26.178;2023-10-31T02:36:25;4.60;99.90
64226;DHT22;50545;56.064;26.178;2023-10-31T02:38:52;4.60;99.90
64226;DHT22;50545;56.064;26.178;2023-10-31T02:41:20;4.50;99.90
64226;DHT22;50545;56.064;26.178;2023-10-31T02:43:47;4.40;99.90
64226;DHT22;50545;56.064;26.178;2023-10-31T02:46:15;4.40;99.90
64226;DHT22;50545;56.064;26.178;2023-10-31T02:48:43;4.40;99.90
64226;DHT22;50545;56.064;26.178;2023-10-31T02:51:11;4.40;99.90
64226;DHT22;50545;56.064;26.178;2023-10-31T02:53:38;4.40;99.90
64226;DHT22;50545;56.064;26.178;2023-10-31T02:56:06;4.30;99.90
64226;DHT22;50545;56.064;26.178;2023-10-31T02:58:33;4.30;99.90
64226;DHT22;50545;56.064;26.178;2023-10-31T03:01:01;4.20;99.90
64226;DHT22;50545;56.064;26.178;2023-10-31T03:03:28;4.20;99.90
64226;DHT22;50545;56.064;26.178;2023-10-31T03:05:56;4.10;99.90
64226;DHT22;50545;56.064;26.178;2023-10-31T03:08:23;4.10;99.90
64226;DHT22;50545;56.064;26.178;2023-10-31T03:10:51;4.10;99.90
64226;DHT22;50545;56.064;26.178;2023-10-31T03:13:19;4.10;99.90
64226;DHT22;50545;56.064;26.178;2023-10-31T03:15:47;4.10;99.90
64226;DHT22;50545;56.064;26.178;2023-10-31T03:18:15;4.10;99.90
64226;DHT22;50545;56.064;26.178;2023-10-31T03:20:46;4.10;99.90
64226;DHT22;50545;56.064;26.178;2023-10-31T03:23:13;4.10;99.90
64226;DHT22;50545;56.064;26.178;2023-10-31T03:25:41;4.10;99.90
64226;DHT22;50545;56.064;26.178;2023-10-31T03:28:18;4.00;99.90
64226;DHT22;50545;56.064;26.178;2023-10-31T03:30:49;4.00;99.90
64226;DHT22;50545;56.064;26.178;2023-10-31T03:33:17;4.00;99.90
64226;DHT22;50545;56.064;26.178;2023-10-31T03:35:45;4.00;99.90
64226;DHT22;50545;56.064;26.178;2023-10-31T03:38:12;4.00;99.90
64226;DHT22;50545;56.064;26.178;2023-10-31T03:40:41;4.00;99.90
64226;DHT22;50545;56.064;26.178;2023-10-31T03:43:08;4.00;99.90
64226;DHT22;50545;56.064;26.178;2023-10-31T03:45:36;3.90;99.90
64226;DHT22;50545;56.064;26.178;2023-10-31T03:48:03;3.90;99.90
64226;DHT22;50545;56.064;26.178;2023-10-31T03:50:31;3.80;99.90
64226;DHT22;50545;56.064;26.178;2023-10-31T03:52:58;3.80;99.90
64226;DHT22;50545;56.064;26.178;2023-10-31T03:55:26;3.70;99.90
64226;DHT22;50545;56.064;26.178;2023-10-31T03:57:54;3.60;99.90
64226;DHT22;50545;56.064;26.178;2023-10-31T04:00:21;3.60;99.90
64226;DHT22;50545;56.064;26.178;2023-10-31T04:02:49;3.50;99.90
64226;DHT22;50545;56.064;26.178;2023-10-31T04:05:16;3.50;99.90
64226;DHT22;50545;56.064;26.178;2023-10-31T04:07:47;3.50;99.90
64226;DHT22;50545;56.064;26.178;2023-10-31T04:10:16;3.40;99.90
64226;DHT22;50545;56.064;26.178;2023-10-31T04:12:43;3.40;99.90
64226;DHT22;50545;56.064;26.178;2023-10-31T04:15:11;3.40;99.90
64226;DHT22;50545;56.064;26.178;2023-10-31T04:17:38;3.30;99.90
64226;DHT22;50545;56.064;26.178;2023-10-31T04:20:06;3.20;99.90
64226;DHT22;50545;56.064;26.178;2023-10-31T04:22:35;3.20;99.90
64226;DHT22;50545;56.064;26.178;2023-10-31T04:25:03;3.10;99.90
64226;DHT22;50545;56.064;26.178;2023-10-31T04:27:30;3.10;99.90
64226;DHT22;50545;56.064;26.178;2023-10-31T04:29:58;3.10;99.90
64226;DHT22;50545;56.064;26.178;2023-10-31T04:32:25;3.00;99.90
64226;DHT22;50545;56.064;26.178;2023-10-31T04:34:53;3.00;99.90
64226;DHT22;50545;56.064;26.178;2023-10-31T04:37:20;3.00;99.90
64226;DHT22;50545;56.064;26.178;2023-10-31T04:39:48;3.00;99.90
64226;DHT22;50545;56.064;26.178;2023-10-31T04:42:15;3.00;99.90
64226;DHT22;50545;56.064;26.178;2023-10-31T04:44:43;2.90;99.90
64226;DHT22;50545;56.064;26.178;2023-10-31T04:47:10;2.90;99.90
64226;DHT22;50545;56.064;26.178;2023-10-31T04:49:38;2.90;99.90
64226;DHT22;50545;56.064;26.178;2023-10-31T04:52:06;3.00;99.90
64226;DHT22;50545;56.064;26.178;2023-10-31T04:54:33;3.00;99.90
64226;DHT22;50545;56.064;26.178;2023-10-31T04:57:01;3.00;99.90
64226;DHT22;50545;56.064;26.178;2023-10-31T04:59:28;3.10;99.90
64226;DHT22;50545;56.064;26.178;2023-10-31T05:01:57;3.20;99.90
64226;DHT22;50545;56.064;26.178;2023-10-31T05:04:25;3.30;99.90
64226;DHT22;50545;56.064;26.178;2023-10-31T05:06:53;3.40;99.90
64226;DHT22;50545;56.064;26.178;2023-10-31T05:09:21;3.60;99.90
64226;DHT22;50545;56.064;26.178;2023-10-31T05:11:48;3.70;99.90
64226;DHT22;50545;56.064;26.178;2023-10-31T05:14:16;3.90;99.90
64226;DHT22;50545;56.064;26.178;2023-10-31T05:16:44;4.10;99.90
64226;DHT22;50545;56.064;26.178;2023-10-31T05:19:11;4.20;99.90
64226;DHT22;50545;56.064;26.178;2023-10-31T05:21:39;4.30;99.90
64226;DHT22;50545;56.064;26.178;2023-10-31T05:24:07;4.40;99.90
64226;DHT22;50545;56.064;26.178;2023-10-31T05:26:34;4.50;99.90
64226;DHT22;50545;56.064;26.178;2023-10-31T05:29:02;4.60;99.90
64226;DHT22;50545;56.064;26.178;2023-10-31T05:31:30;4.70;99.90
64226;DHT22;50545;56.064;26.178;2023-10-31T05:33:57;4.80;99.90
64226;DHT22;50545;56.064;26.178;2023-10-31T05:36:25;4.90;99.90
64226;DHT22;50545;56.064;26.178;2023-10-31T05:38:53;5.00;99.90
64226;DHT22;50545;56.064;26.178;2023-10-31T05:41:21;5.20;99.90
64226;DHT22;50545;56.064;26.178;2023-10-31T05:43:48;5.30;99.90
64226;DHT22;50545;56.064;26.178;2023-10-31T05:46:16;5.40;99.90
64226;DHT22;50545;56.064;26.178;2023-10-31T05:48:45;5.40;99.90
64226;DHT22;50545;56.064;26.178;2023-10-31T05:51:14;5.50;99.90
64226;DHT22;50545;56.064;26.178;2023-10-31T05:53:44;5.60;99.90
64226;DHT22;50545;56.064;26.178;2023-10-31T05:56:12;5.60;99.90
64226;DHT22;50545;56.064;26.178;2023-10-31T05:58:41;5.70;99.90
64226;DHT22;50545;56.064;26.178;2023-10-31T06:01:09;5.80;99.90
64226;DHT22;50545;56.064;26.178;2023-10-31T06:03:37;5.80;99.90
64226;DHT22;50545;56.064;26.178;2023-10-31T06:06:05;5.80;99.90
64226;DHT22;50545;56.064;26.178;2023-10-31T06:08:33;5.80;99.90
64226;DHT22;50545;56.064;26.178;2023-10-31T06:11:03;5.80;99.90
64226;DHT22;50545;56.064;26.178;2023-10-31T06:13:31;5.80;99.90
64226;DHT22;50545;56.064;26.178;2023-10-31T06:16:00;5.80;99.90
64226;DHT22;50545;56.064;26.178;2023-10-31T06:18:28;5.80;99.90
64226;DHT22;50545;56.064;26.178;2023-10-31T06:20:56;5.90;99.90
64226;DHT22;50545;56.064;26.178;2023-10-31T06:23:24;5.80;99.90
64226;DHT22;50545;56.064;26.178;2023-10-31T06:25:52;5.80;99.90
64226;DHT22;50545;56.064;26.178;2023-10-31T06:28:19;5.90;99.90
64226;DHT22;50545;56.064;26.178;2023-10-31T06:30:47;5.90;99.90
64226;DHT22;50545;56.064;26.178;2023-10-31T06:33:14;5.90;99.90
64226;DHT22;50545;56.064;26.178;2023-10-31T06:35:42;5.90;99.90
64226;DHT22;50545;56.064;26.178;2023-10-31T06:38:09;6.00;99.90
64226;DHT22;50545;56.064;26.178;2023-10-31T06:40:37;6.00;99.90
64226;DHT22;50545;56.064;26.178;2023-10-31T06:43:05;6.10;99.90
64226;DHT22;50545;56.064;26.178;2023-10-31T06:45:32;6.10;99.90
64226;DHT22;50545;56.064;26.178;2023-10-31T06:47:59;6.20;99.90
64226;DHT22;50545;56.064;26.178;2023-10-31T06:50:27;6.20;99.90
64226;DHT22;50545;56.064;26.178;2023-10-31T06:52:55;6.30;99.90
64226;DHT22;50545;56.064;26.178;2023-10-31T06:55:22;6.40;99.90
64226;DHT22;50545;56.064;26.178;2023-10-31T06:57:50;6.40;99.90
64226;DHT22;50545;56.064;26.178;2023-10-31T07:00:17;6.60;99.90
64226;DHT22;50545;56.064;26.178;2023-10-31T07:02:45;6.70;99.90
64226;DHT22;50545;56.064;26.178;2023-10-31T07:05:13;6.90;99.90
64226;DHT22;50545;56.064;26.178;2023-10-31T07:07:41;7.00;99.90
64226;DHT22;50545;56.064;26.178;2023-10-31T07:10:09;7.20;99.90
64226;DHT22;50545;56.064;26.178;2023-10-31T07:12:36;7.30;99.90
64226;DHT22;50545;56.064;26.178;2023-10-31T07:15:04;7.40;99.90
64226;DHT22;50545;56.064;26.178;2023-10-31T07:17:32;7.60;99.90
64226;DHT22;50545;56.064;26.178;2023-10-31T07:20:00;7.70;99.90
64226;DHT22;50545;56.064;26.178;2023-10-31T07:22:28;7.80;99.90
64226;DHT22;50545;56.064;26.178;2023-10-31T07:24:55;7.80;99.90
64226;DHT22;50545;56.064;26.178;2023-10-31T07:27:24;7.90;99.90
64226;DHT22;50545;56.064;26.178;2023-10-31T07:29:52;8.00;99.90
64226;DHT22;50545;56.064;26.178;2023-10-31T07:32:19;8.10;99.90
64226;DHT22;50545;56.064;26.178;2023-10-31T07:34:47;8.10;99.90
64226;DHT22;50545;56.064;26.178;2023-10-31T07:37:15;8.10;99.90
64226;DHT22;50545;56.064;26.178;2023-10-31T07:39:42;8.10;99.90
64226;DHT22;50545;56.064;26.178;2023-10-31T07:42:09;8.20;99.90
64226;DHT22;50545;56.064;26.178;2023-10-31T07:44:37;8.20;99.90
64226;DHT22;50545;56.064;26.178;2023-10-31T07:47:05;8.30;99.90
64226;DHT22;50545;56.064;26.178;2023-10-31T07:49:32;8.30;99.90
64226;DHT22;50545;56.064;26.178;2023-10-31T07:52:00;8.40;99.90
64226;DHT22;50545;56.064;26.178;2023-10-31T07:54:27;8.30;99.90
64226;DHT22;50545;56.064;26.178;2023-10-31T07:56:55;8.40;99.90
64226;DHT22;50545;56.064;26.178;2023-10-31T07:59:22;8.40;99.90
64226;DHT22;50545;56.064;26.178;2023-10-31T08:01:50;8.50;99.90
64226;DHT22;50545;56.064;26.178;2023-10-31T08:04:19;8.50;99.90
64226;DHT22;50545;56.064;26.178;2023-10-31T08:06:47;8.60;99.90
64226;DHT22;50545;56.064;26.178;2023-10-31T08:09:14;8.60;99.90
64226;DHT22;50545;56.064;26.178;2023-10-31T08:11:43;8.70;99.90
64226;DHT22;50545;56.064;26.178;2023-10-31T08:14:10;8.60;99.90
64226;DHT22;50545;56.064;26.178;2023-10-31T08:16:38;8.60;99.90
64226;DHT22;50545;56.064;26.178;2023-10-31T08:19:06;8.70;99.90
64226;DHT22;50545;56.064;26.178;2023-10-31T08:21:33;8.60;99.90
64226;DHT22;50545;56.064;26.178;2023-10-31T08:24:03;8.60;99.90
64226;DHT22;50545;56.064;26.178;2023-10-31T08:26:31;8.60;99.90
64226;DHT22;50545;56.064;26.178;2023-10-31T08:28:59;8.60;99.90
64226;DHT22;50545;56.064;26.178;2023-10-31T08:31:27;8.60;99.90
64226;DHT22;50545;56.064;26.178;2023-10-31T08:33:54;8.70;99.90
64226;DHT22;50545;56.064;26.178;2023-10-31T08:36:22;8.70;99.90
64226;DHT22;50545;56.064;26.178;2023-10-31T08:38:49;8.70;99.90
64226;DHT22;50545;56.064;26.178;2023-10-31T08:41:17;8.70;99.90
64226;DHT22;50545;56.064;26.178;2023-10-31T08:43:47;8.80;99.90
64226;DHT22;50545;56.064;26.178;2023-10-31T08:46:14;8.90;99.90
64226;DHT22;50545;56.064;26.178;2023-10-31T08:48:42;9.00;99.90
64226;DHT22;50545;56.064;26.178;2023-10-31T08:51:10;9.20;99.90
64226;DHT22;50545;56.064;26.178;2023-10-31T08:53:37;9.30;99.90
64226;DHT22;50545;56.064;26.178;2023-10-31T08:56:05;9.50;99.90
64226;DHT22;50545;56.064;26.178;2023-10-31T08:58:33;9.60;99.90
64226;DHT22;50545;56.064;26.178;2023-10-31T09:01:01;9.70;99.90
64226;DHT22;50545;56.064;26.178;2023-10-31T09:03:28;9.80;99.90
64226;DHT22;50545;56.064;26.178;2023-10-31T09:05:57;9.90;99.90
64226;DHT22;50545;56.064;26.178;2023-10-31T09:08:24;10.00;99.90
64226;DHT22;50545;56.064;26.178;2023-10-31T09:10:52;10.10;99.90
64226;DHT22;50545;56.064;26.178;2023-10-31T09:13:20;10.20;99.90
64226;DHT22;50545;56.064;26.178;2023-10-31T09:15:47;10.30;99.90
64226;DHT22;50545;56.064;26.178;2023-10-31T09:18:17;10.30;99.90
64226;DHT22;50545;56.064;26.178;2023-10-31T09:20:44;10.30;99.90
64226;DHT22;50545;56.064;26.178;2023-10-31T09:23:12;10.30;99.90
64226;DHT22;50545;56.064;26.178;2023-10-31T09:25:40;10.40;99.90
64226;DHT22;50545;56.064;26.178;2023-10-31T09:28:07;10.40;99.90
64226;DHT22;50545;56.064;26.178;2023-10-31T09:30:35;10.50;99.90
64226;DHT22;50545;56.064;26.178;2023-10-31T09:33:02;10.50;99.90
64226;DHT22;50545;56.064;26.178;2023-10-31T09:35:30;10.60;99.90
64226;DHT22;50545;56.064;26.178;2023-10-31T09:37:57;10.60;99.90
64226;DHT22;50545;56.064;26.178;2023-10-31T09:40:25;10.70;99.90
64226;DHT22;50545;56.064;26.178;2023-10-31T09:42:52;10.60;99.90
64226;DHT22;50545;56.064;26.178;2023-10-31T09:45:20;10.70;99.90
64226;DHT22;50545;56.064;26.178;2023-10-31T09:47:48;10.70;99.90
64226;DHT22;50545;56.064;26.178;2023-10-31T09:50:15;10.70;99.90
64226;DHT22;50545;56.064;26.178;2023-10-31T09:52:44;10.70;99.90
64226;DHT22;50545;56.064;26.178;2023-10-31T09:55:12;10.70;99.90
64226;DHT22;50545;56.064;26.178;2023-10-31T09:57:40;10.60;99.90
64226;DHT22;50545;56.064;26.178;2023-10-31T10:00:08;10.60;99.90
64226;DHT22;50545;56.064;26.178;2023-10-31T10:02:35;10.60;99.90
64226;DHT22;50545;56.064;26.178;2023-10-31T10:05:04;10.60;99.90
64226;DHT22;50545;56.064;26.178;2023-10-31T10:07:34;10.60;99.90
64226;DHT22;50545;56.064;26.178;2023-10-31T10:10:03;10.60;99.90
64226;DHT22;50545;56.064;26.178;2023-10-31T10:12:31;10.70;99.90
64226;DHT22;50545;56.064;26.178;2023-10-31T10:14:59;10.80;99.90
64226;DHT22;50545;56.064;26.178;2023-10-31T10:17:26;10.80;99.90
64226;DHT22;50545;56.064;26.178;2023-10-31T10:20:10;10.80;99.90
64226;DHT22;50545;56.064;26.178;2023-10-31T10:22:40;10.80;99.90
64226;DHT22;50545;56.064;26.178;2023-10-31T10:25:10;10.90;99.90
64226;DHT22;50545;56.064;26.178;2023-10-31T10:27:43;11.00;99.90
64226;DHT22;50545;56.064;26.178;2023-10-31T10:30:13;11.10;99.90
64226;DHT22;50545;56.064;26.178;2023-10-31T10:32:41;11.20;99.90
64226;DHT22;50545;56.064;26.178;2023-10-31T10:35:09;11.30;99.90
64226;DHT22;50545;56.064;26.178;2023-10-31T10:37:39;11.40;99.90
64226;DHT22;50545;56.064;26.178;2023-10-31T10:40:08;11.50;99.90
64226;DHT22;50545;56.064;26.178;2023-10-31T10:42:50;11.50;99.90
64226;DHT22;50545;56.064;26.178;2023-10-31T10:45:24;11.60;99.90
64226;DHT22;50545;56.064;26.178;2023-10-31T10:47:54;11.50;99.90
64226;DHT22;50545;56.064;26.178;2023-10-31T10:50:24;11.50;99.90
64226;DHT22;50545;56.064;26.178;2023-10-31T10:53:07;11.50;99.90
64226;DHT22;50545;56.064;26.178;2023-10-31T10:55:43;11.50;99.90
64226;DHT22;50545;56.064;26.178;2023-10-31T10:58:47;11.50;99.90
64226;DHT22;50545;56.064;26.178;2023-10-31T11:01:18;11.50;99.90
64226;DHT22;50545;56.064;26.178;2023-10-31T11:03:47;11.50;99.90
64226;DHT22;50545;56.064;26.178;2023-10-31T11:06:14;11.50;99.90
64226;DHT22;50545;56.064;26.178;2023-10-31T11:08:43;11.50;99.90
64226;DHT22;50545;56.064;26.178;2023-10-31T11:11:11;11.50;99.90
64226;DHT22;50545;56.064;26.178;2023-10-31T11:13:39;11.50;99.90
64226;DHT22;50545;56.064;26.178;2023-10-31T11:16:13;11.50;99.90
64226;DHT22;50545;56.064;26.178;2023-10-31T11:18:43;11.50;99.90
64226;DHT22;50545;56.064;26.178;2023-10-31T11:21:11;11.50;99.90
64226;DHT22;50545;56.064;26.178;2023-10-31T11:23:38;11.50;99.90
64226;DHT22;50545;56.064;26.178;2023-10-31T11:26:10;11.50;99.90
64226;DHT22;50545;56.064;26.178;2023-10-31T11:28:37;11.40;99.90
64226;DHT22;50545;56.064;26.178;2023-10-31T11:31:05;11.40;99.90
64226;DHT22;50545;56.064;26.178;2023-10-31T11:33:39;11.40;99.90
64226;DHT22;50545;56.064;26.178;2023-10-31T11:36:07;11.30;99.90
64226;DHT22;50545;56.064;26.178;2023-10-31T11:38:37;11.30;99.90
64226;DHT22;50545;56.064;26.178;2023-10-31T11:41:05;11.30;99.90
64226;DHT22;50545;56.064;26.178;2023-10-31T11:46:23;11.30;99.90
64226;DHT22;50545;56.064;26.178;2023-10-31T11:48:54;11.30;99.90
64226;DHT22;50545;56.064;26.178;2023-10-31T11:51:27;11.30;99.90
64226;DHT22;50545;56.064;26.178;2023-10-31T11:53:55;11.30;99.90
64226;DHT22;50545;56.064;26.178;2023-10-31T11:56:23;11.30;99.90
64226;DHT22;50545;56.064;26.178;2023-10-31T11:59:03;11.30;99.90
64226;DHT22;50545;56.064;26.178;2023-10-31T12:01:31;11.40;99.90
64226;DHT22;50545;56.064;26.178;2023-10-31T12:03:59;11.40;99.90
64226;DHT22;50545;56.064;26.178;2023-10-31T12:06:29;11.40;99.90
64226;DHT22;50545;56.064;26.178;2023-10-31T12:08:59;11.40;99.90
64226;DHT22;50545;56.064;26.178;2023-10-31T12:11:28;11.40;99.90
64226;DHT22;50545;56.064;26.178;2023-10-31T12:13:59;11.40;99.90
64226;DHT22;50545;56.064;26.178;2023-10-31T12:16:32;11.40;99.90
64226;DHT22;50545;56.064;26.178;2023-10-31T12:19:05;11.50;99.90
64226;DHT22;50545;56.064;26.178;2023-10-31T12:21:36;11.50;99.90
64226;DHT22;50545;56.064;26.178;2023-10-31T12:24:08;11.50;99.90
64226;DHT22;50545;56.064;26.178;2023-10-31T12:26:36;11.50;99.90
64226;DHT22;50545;56.064;26.178;2023-10-31T12:29:08;11.50;99.90
64226;DHT22;50545;56.064;26.178;2023-10-31T12:31:39;11.50;99.90
64226;DHT22;50545;56.064;26.178;2023-10-31T12:34:07;11.50;99.90
64226;DHT22;50545;56.064;26.178;2023-10-31T12:36:35;11.50;99.90
64226;DHT22;50545;56.064;26.178;2023-10-31T12:39:05;11.50;99.90
64226;DHT22;50545;56.064;26.178;2023-10-31T12:41:34;11.50;99.90
64226;DHT22;50545;56.064;26.178;2023-10-31T12:44:02;11.50;99.90
64226;DHT22;50545;56.064;26.178;2023-10-31T12:46:32;11.50;99.90
64226;DHT22;50545;56.064;26.178;2023-10-31T12:49:00;11.60;99.90
64226;DHT22;50545;56.064;26.178;2023-10-31T12:51:28;11.60;99.90
64226;DHT22;50545;56.064;26.178;2023-10-31T12:53:55;11.60;99.90
64226;DHT22;50545;56.064;26.178;2023-10-31T12:56:40;11.60;99.90
64226;DHT22;50545;56.064;26.178;2023-10-31T12:59:09;11.60;99.90
64226;DHT22;50545;56.064;26.178;2023-10-31T13:01:38;11.60;99.90
64226;DHT22;50545;56.064;26.178;2023-10-31T13:04:09;11.60;99.90
64226;DHT22;50545;56.064;26.178;2023-10-31T13:06:37;11.60;99.90
64226;DHT22;50545;56.064;26.178;2023-10-31T13:09:05;11.70;99.90
64226;DHT22;50545;56.064;26.178;2023-10-31T13:11:40;11.70;99.90
64226;DHT22;50545;56.064;26.178;2023-10-31T13:14:07;11.60;99.90
64226;DHT22;50545;56.064;26.178;2023-10-31T13:16:35;11.70;99.90
64226;DHT22;50545;56.064;26.178;2023-10-31T13:19:02;11.60;99.90
64226;DHT22;50545;56.064;26.178;2023-10-31T13:21:30;11.70;99.90
64226;DHT22;50545;56.064;26.178;2023-10-31T13:23:57;11.70;99.90
64226;DHT22;50545;56.064;26.178;2023-10-31T13:26:24;11.70;99.90
64226;DHT22;50545;56.064;26.178;2023-10-31T13:28:52;11.70;99.90
64226;DHT22;50545;56.064;26.178;2023-10-31T13:31:19;11.70;99.90
64226;DHT22;50545;56.064;26.178;2023-10-31T13:33:47;11.70;99.90
64226;DHT22;50545;56.064;26.178;2023-10-31T13:36:15;11.70;99.90
64226;DHT22;50545;56.064;26.178;2023-10-31T13:38:42;11.70;99.90
64226;DHT22;50545;56.064;26.178;2023-10-31T13:41:10;11.70;99.90
64226;DHT22;50545;56.064;26.178;2023-10-31T13:43:38;11.80;99.90
64226;DHT22;50545;56.064;26.178;2023-10-31T13:46:05;11.80;99.90
64226;DHT22;50545;56.064;26.178;2023-10-31T13:48:33;11.90;99.90
64226;DHT22;50545;56.064;26.178;2023-10-31T13:51:00;11.90;99.90
64226;DHT22;50545;56.064;26.178;2023-10-31T13:53:28;11.90;99.90
64226;DHT22;50545;56.064;26.178;2023-10-31T13:55:56;11.80;99.90
64226;DHT22;50545;56.064;26.178;2023-10-31T13:58:23;11.80;99.90
64226;DHT22;50545;56.064;26.178;2023-10-31T14:00:51;11.90;99.90
64226;DHT22;50545;56.064;26.178;2023-10-31T14:03:19;11.80;99.90
64226;DHT22;50545;56.064;26.178;2023-10-31T14:05:47;11.80;99.90
64226;DHT22;50545;56.064;26.178;2023-10-31T14:08:15;11.90;99.90
64226;DHT22;50545;56.064;26.178;2023-10-31T14:10:43;11.80;99.90
64226;DHT22;50545;56.064;26.178;2023-10-31T14:13:12;11.80;99.90
64226;DHT22;50545;56.064;26.178;2023-10-31T14:15:41;11.80;99.90
64226;DHT22;50545;56.064;26.178;2023-10-31T14:18:08;11.80;99.90
64226;DHT22;50545;56.064;26.178;2023-10-31T14:20:36;11.70;99.90
64226;DHT22;50545;56.064;26.178;2023-10-31T14:23:04;11.70;99.90
64226;DHT22;50545;56.064;26.178;2023-10-31T14:25:31;11.70;99.90
64226;DHT22;50545;56.064;26.178;2023-10-31T14:27:59;11.70;99.90
64226;DHT22;50545;56.064;26.178;2023-10-31T14:30:26;11.70;99.90
64226;DHT22;50545;56.064;26.178;2023-10-31T14:32:54;11.70;99.90
64226;DHT22;50545;56.064;26.178;2023-10-31T14:35:21;11.60;99.90
64226;DHT22;50545;56.064;26.178;2023-10-31T14:37:49;11.60;99.90
64226;DHT22;50545;56.064;26.178;2023-10-31T14:40:16;11.60;99.90
64226;DHT22;50545;56.064;26.178;2023-10-31T14:42:45;11.60;99.90
64226;DHT22;50545;56.064;26.178;2023-10-31T14:45:13;11.60;99.90
64226;DHT22;50545;56.064;26.178;2023-10-31T14:47:40;11.60;99.90
64226;DHT22;50545;56.064;26.178;2023-10-31T14:50:08;11.60;99.90
64226;DHT22;50545;56.064;26.178;2023-10-31T14:52:35;11.60;99.90
64226;DHT22;50545;56.064;26.178;2023-10-31T14:55:03;11.60;99.90
64226;DHT22;50545;56.064;26.178;2023-10-31T14:57:31;11.60;99.90
64226;DHT22;50545;56.064;26.178;2023-10-31T15:00:00;11.60;99.90
64226;DHT22;50545;56.064;26.178;2023-10-31T15:02:27;11.50;99.90
64226;DHT22;50545;56.064;26.178;2023-10-31T15:04:55;11.50;99.90
64226;DHT22;50545;56.064;26.178;2023-10-31T15:07:22;11.50;99.90
64226;DHT22;50545;56.064;26.178;2023-10-31T15:09:50;11.60;99.90
64226;DHT22;50545;56.064;26.178;2023-10-31T15:12:17;11.60;99.90
64226;DHT22;50545;56.064;26.178;2023-10-31T15:14:45;11.50;99.90
64226;DHT22;50545;56.064;26.178;2023-10-31T15:17:12;11.60;99.90
64226;DHT22;50545;56.064;26.178;2023-10-31T15:19:40;11.60;99.90
64226;DHT22;50545;56.064;26.178;2023-10-31T15:22:07;11.60;99.90
64226;DHT22;50545;56.064;26.178;2023-10-31T15:24:35;11.60;99.90
64226;DHT22;50545;56.064;26.178;2023-10-31T15:27:03;11.60;99.90
64226;DHT22;50545;56.064;26.178;2023-10-31T15:29:30;11.60;99.90
64226;DHT22;50545;56.064;26.178;2023-10-31T15:31:58;11.60;99.90
64226;DHT22;50545;56.064;26.178;2023-10-31T15:34:26;11.60;99.90